createdAt,value
2023-03-18T00:01:18.998Z,87.85
2023-03-18T00:03:49.485Z,87.82
2023-03-18T00:06:18.839Z,87.93
2023-03-18T00:08:47.528Z,88.01
2023-03-18T00:11:18.591Z,87.57
2023-03-18T00:13:48.591Z,87.29
2023-03-18T00:16:18.338Z,86.94
2023-03-18T00:18:47.036Z,87.08
2023-03-18T00:21:17.013Z,86.98
2023-03-18T00:23:45.604Z,86.93
2023-03-18T00:26:14.508Z,86.74
2023-03-18T00:28:42.939Z,86.83
2023-03-18T00:31:13.826Z,87.06
2023-03-18T00:33:46.054Z,87.08
2023-03-18T00:36:16.117Z,87.06
2023-03-18T00:38:47.444Z,86.89
2023-03-18T00:41:21.922Z,86.91
2023-03-18T00:43:54.286Z,86.69
2023-03-18T00:46:29.655Z,86.68
2023-03-18T00:49:02.283Z,86.76
2023-03-18T00:51:33.231Z,86.75
2023-03-18T00:54:04.711Z,86.90
2023-03-18T00:56:33.369Z,86.97
2023-03-18T00:59:02.404Z,86.80
2023-03-18T01:01:31.504Z,86.94
2023-03-18T01:04:02.110Z,86.93
2023-03-18T01:06:34.094Z,86.75
2023-03-18T01:09:02.878Z,86.81
2023-03-18T01:11:31.770Z,86.81
2023-03-18T01:14:00.690Z,86.84
2023-03-18T01:16:30.311Z,86.78
2023-03-18T01:18:58.747Z,86.52
2023-03-18T01:21:26.989Z,86.58
2023-03-18T01:24:00.885Z,86.55
2023-03-18T01:26:30.345Z,86.57
2023-03-18T01:29:00.252Z,86.64
2023-03-18T01:31:29.981Z,86.51
2023-03-18T01:34:02.459Z,86.56
2023-03-18T01:36:38.139Z,86.46
2023-03-18T01:39:10.381Z,86.57
2023-03-18T01:41:40.391Z,86.71
2023-03-18T01:44:14.422Z,87.12
2023-03-18T01:46:47.096Z,87.71
2023-03-18T01:49:37.063Z,87.50
2023-03-18T01:52:22.226Z,87.60
2023-03-18T01:54:59.969Z,87.76
2023-03-18T01:57:32.862Z,87.96
2023-03-18T02:00:02.215Z,87.89
2023-03-18T02:02:35.207Z,87.93
2023-03-18T02:05:06.441Z,87.99
2023-03-18T02:07:35.301Z,87.65
2023-03-18T02:10:11.826Z,87.82
2023-03-18T02:12:44.228Z,87.36
2023-03-18T02:15:16.766Z,87.34
2023-03-18T02:17:54.086Z,87.32
2023-03-18T02:20:28.373Z,87.58
2023-03-18T02:23:06.679Z,87.86
2023-03-18T02:25:47.998Z,87.90
2023-03-18T02:28:23.300Z,87.94
2023-03-18T02:30:57.248Z,87.95
2023-03-18T02:33:28.919Z,87.98
2023-03-18T02:36:04.592Z,87.91
2023-03-18T02:38:35.473Z,87.92
2023-03-18T02:41:15.372Z,87.89
2023-03-18T02:43:44.712Z,87.76
2023-03-18T02:46:35.644Z,87.78
2023-03-18T02:49:05.327Z,87.89
2023-03-18T02:51:37.071Z,87.85
2023-03-18T02:54:12.620Z,87.90
2023-03-18T02:56:42.835Z,87.96
2023-03-18T02:59:14.003Z,88.01
2023-03-18T03:01:44.083Z,88.24
2023-03-18T03:04:12.715Z,88.30
2023-03-18T03:06:42.861Z,88.44
2023-03-18T03:09:14.173Z,88.73
2023-03-18T03:11:43.595Z,88.87
2023-03-18T03:14:16.582Z,88.96
2023-03-18T03:16:46.817Z,89.20
2023-03-18T03:19:16.811Z,89.02
2023-03-18T03:21:45.320Z,88.92
2023-03-18T03:24:13.803Z,88.98
2023-03-18T03:26:46.484Z,89.10
2023-03-18T03:29:14.771Z,89.22
2023-03-18T03:31:42.946Z,89.33
2023-03-18T03:34:12.081Z,89.01
2023-03-18T03:36:40.977Z,89.05
2023-03-18T03:39:10.859Z,89.20
2023-03-18T03:41:39.044Z,89.06
2023-03-18T03:44:07.444Z,88.96
2023-03-18T03:46:37.622Z,88.86
2023-03-18T03:49:06.873Z,89.00
2023-03-18T03:51:35.095Z,88.98
2023-03-18T03:54:03.661Z,89.01
2023-03-18T03:56:32.418Z,89.05
2023-03-18T03:59:00.888Z,88.89
2023-03-18T04:01:40.330Z,89.05
2023-03-18T04:04:08.726Z,88.89
2023-03-18T04:06:37.193Z,88.80
2023-03-18T04:09:05.983Z,88.71
2023-03-18T04:11:34.882Z,88.60
2023-03-18T04:14:03.129Z,88.57
2023-03-18T04:16:32.069Z,88.19
2023-03-18T04:19:01.373Z,88.46
2023-03-18T04:21:30.871Z,88.31
2023-03-18T04:23:59.402Z,88.34
2023-03-18T04:26:28.593Z,88.37
2023-03-18T04:29:05.820Z,88.54
2023-03-18T04:31:34.374Z,88.60
2023-03-18T04:34:03.632Z,88.77
2023-03-18T04:36:32.833Z,88.65
2023-03-18T04:39:01.014Z,88.42
2023-03-18T04:41:29.782Z,88.23
2023-03-18T04:44:00.758Z,88.36
2023-03-18T04:46:36.429Z,88.37
2023-03-18T04:49:06.722Z,88.28
2023-03-18T04:51:35.850Z,88.42
2023-03-18T04:54:05.227Z,88.40
2023-03-18T04:56:34.447Z,88.49
2023-03-18T04:59:03.295Z,88.58
2023-03-18T05:01:34.003Z,88.58
2023-03-18T05:04:02.903Z,88.69
2023-03-18T05:06:39.316Z,88.66
2023-03-18T05:09:13.362Z,88.63
2023-03-18T05:11:45.430Z,88.43
2023-03-18T05:14:23.612Z,88.51
2023-03-18T05:16:52.058Z,88.31
2023-03-18T05:19:20.786Z,88.22
2023-03-18T05:21:56.152Z,88.06
2023-03-18T05:24:25.848Z,88.24
2023-03-18T05:27:00.307Z,88.31
2023-03-18T05:29:34.067Z,88.55
2023-03-18T05:32:17.085Z,88.26
2023-03-18T05:34:46.073Z,88.28
2023-03-18T05:37:15.701Z,88.24
2023-03-18T05:39:48.072Z,87.96
2023-03-18T05:42:18.243Z,87.98
2023-03-18T05:44:47.091Z,87.90
2023-03-18T05:47:16.039Z,87.84
2023-03-18T05:49:53.267Z,87.92
2023-03-18T05:52:24.923Z,88.05
2023-03-18T05:54:55.869Z,88.06
2023-03-18T05:57:28.548Z,87.80
2023-03-18T06:00:03.238Z,88.09
2023-03-18T06:02:43.941Z,88.06
2023-03-18T06:05:13.121Z,88.30
2023-03-18T06:07:41.486Z,88.23
2023-03-18T06:10:12.387Z,88.00
2023-03-18T06:12:41.788Z,87.84
2023-03-18T06:15:12.050Z,87.91
2023-03-18T06:17:42.330Z,87.98
2023-03-18T06:20:11.927Z,87.83
2023-03-18T06:22:40.524Z,87.45
2023-03-18T06:25:10.196Z,87.51
2023-03-18T06:27:41.384Z,87.60
2023-03-18T06:30:25.226Z,87.53
2023-03-18T06:32:57.264Z,87.06
2023-03-18T06:35:32.812Z,86.79
2023-03-18T06:38:01.635Z,86.70
2023-03-18T06:40:30.897Z,86.74
2023-03-18T06:42:59.364Z,86.73
2023-03-18T06:45:38.370Z,86.51
2023-03-18T06:48:09.681Z,86.43
2023-03-18T06:50:42.320Z,86.18
2023-03-18T06:53:19.126Z,85.93
2023-03-18T06:55:49.821Z,85.76
2023-03-18T06:58:19.136Z,85.81
2023-03-18T07:00:58.894Z,85.99
2023-03-18T07:03:30.185Z,85.85
2023-03-18T07:05:58.465Z,86.06
2023-03-18T07:08:29.349Z,85.89
2023-03-18T07:10:57.911Z,85.72
2023-03-18T07:13:27.140Z,85.55
2023-03-18T07:15:56.860Z,85.50
2023-03-18T07:18:25.295Z,84.71
2023-03-18T07:20:55.160Z,84.80
2023-03-18T07:23:23.959Z,84.72
2023-03-18T07:25:52.725Z,84.94
2023-03-18T07:28:21.329Z,84.78
2023-03-18T07:30:52.418Z,84.30
2023-03-18T07:33:26.137Z,84.37
2023-03-18T07:35:55.668Z,83.90
2023-03-18T07:38:24.470Z,83.74
2023-03-18T07:40:52.602Z,83.59
2023-03-18T07:43:20.992Z,83.29
2023-03-18T07:45:51.040Z,83.36
2023-03-18T07:48:20.489Z,83.01
2023-03-18T07:50:48.689Z,82.47
2023-03-18T07:53:19.232Z,82.36
2023-03-18T07:55:47.614Z,82.27
2023-03-18T07:58:15.898Z,82.17
2023-03-18T08:00:45.246Z,82.15
2023-03-18T08:03:15.054Z,82.07
2023-03-18T08:05:44.667Z,81.93
2023-03-18T08:08:12.908Z,82.09
2023-03-18T08:10:43.133Z,82.11
2023-03-18T08:13:13.179Z,82.19
2023-03-18T08:15:41.542Z,82.39
2023-03-18T08:18:10.746Z,81.79
2023-03-18T08:20:40.059Z,81.42
2023-03-18T08:23:09.044Z,81.32
2023-03-18T08:25:38.458Z,81.34
2023-03-18T08:28:07.776Z,81.35
2023-03-18T08:30:36.036Z,81.34
2023-03-18T08:33:04.885Z,81.51
2023-03-18T08:35:34.369Z,81.08
2023-03-18T08:38:07.022Z,80.77
2023-03-18T08:40:39.857Z,80.68
2023-03-18T08:43:08.755Z,80.60
2023-03-18T08:45:39.310Z,80.73
2023-03-18T08:48:08.431Z,80.67
2023-03-18T08:50:42.649Z,80.67
2023-03-18T08:53:11.566Z,80.37
2023-03-18T08:55:40.848Z,80.19
2023-03-18T08:58:09.186Z,80.45
2023-03-18T09:00:39.147Z,80.32
2023-03-18T09:03:07.902Z,79.98
2023-03-18T09:05:36.630Z,79.97
2023-03-18T09:08:05.422Z,80.09
2023-03-18T09:10:35.878Z,80.08
2023-03-18T09:13:05.673Z,80.07
2023-03-18T09:15:34.756Z,80.16
2023-03-18T09:18:12.161Z,80.19
2023-03-18T09:20:41.301Z,80.17
2023-03-18T09:23:11.638Z,80.18
2023-03-18T09:25:42.881Z,79.96
2023-03-18T09:28:11.111Z,80.14
2023-03-18T09:30:42.642Z,80.09
2023-03-18T09:33:11.833Z,80.19
2023-03-18T09:35:42.887Z,79.85
2023-03-18T09:38:18.152Z,79.69
2023-03-18T09:40:58.725Z,79.39
2023-03-18T09:43:53.413Z,79.16
2023-03-18T09:46:25.033Z,79.04
2023-03-18T09:49:12.266Z,79.10
2023-03-18T09:52:18.519Z,79.22
2023-03-18T09:54:52.769Z,79.43
2023-03-18T09:57:28.763Z,79.52
2023-03-18T10:00:20.604Z,79.99
2023-03-18T10:02:53.336Z,80.13
2023-03-18T10:05:31.640Z,80.18
2023-03-18T10:08:04.918Z,79.65
2023-03-18T10:10:41.564Z,79.62
2023-03-18T10:13:15.986Z,79.71
2023-03-18T10:15:46.362Z,79.61
2023-03-18T10:18:32.431Z,79.75
2023-03-18T10:21:00.453Z,79.54
2023-03-18T10:23:41.979Z,79.47
2023-03-18T10:26:38.482Z,79.62
2023-03-18T10:29:38.089Z,78.98
2023-03-18T10:32:10.459Z,78.89
2023-03-18T10:34:46.274Z,78.81
2023-03-18T10:37:36.214Z,78.45
2023-03-18T10:40:16.097Z,78.26
2023-03-18T10:42:44.744Z,78.34
2023-03-18T10:45:24.824Z,78.48
2023-03-18T10:47:59.399Z,78.68
2023-03-18T10:50:31.499Z,78.38
2023-03-18T10:53:20.108Z,78.33
2023-03-18T10:56:02.827Z,78.38
2023-03-18T10:58:31.199Z,78.33
2023-03-18T11:00:59.580Z,78.26
2023-03-18T11:03:52.880Z,78.38
2023-03-18T11:06:31.393Z,78.11
2023-03-18T11:09:08.595Z,77.91
2023-03-18T11:11:40.180Z,77.98
2023-03-18T11:14:21.185Z,78.03
2023-03-18T11:17:00.366Z,77.69
2023-03-18T11:19:32.454Z,77.60
2023-03-18T11:22:12.043Z,77.83
2023-03-18T11:24:42.839Z,77.66
2023-03-18T11:27:16.064Z,77.81
2023-03-18T11:29:49.836Z,77.15
2023-03-18T11:32:24.877Z,77.21
2023-03-18T11:35:00.789Z,77.43
2023-03-18T11:37:30.129Z,77.28
2023-03-18T11:40:14.683Z,77.16
2023-03-18T11:42:43.318Z,77.16
2023-03-18T11:45:44.425Z,76.99
2023-03-18T11:48:40.621Z,77.07
2023-03-18T11:51:29.922Z,77.11
2023-03-18T11:54:04.811Z,77.10
2023-03-18T11:56:34.733Z,77.06
2023-03-18T11:59:31.489Z,76.80
2023-03-18T12:02:18.971Z,76.84
2023-03-18T12:04:53.162Z,76.14
2023-03-18T12:07:40.710Z,75.79
2023-03-18T12:10:36.522Z,75.43
2023-03-18T12:13:45.751Z,75.46
2023-03-18T12:16:56.815Z,75.57
2023-03-18T12:19:50.971Z,75.50
2023-03-18T12:22:27.769Z,75.16
2023-03-18T12:25:13.742Z,74.98
2023-03-18T12:28:26.523Z,74.38
2023-03-18T12:31:33.630Z,74.61
2023-03-18T12:34:04.889Z,74.83
2023-03-18T12:36:48.619Z,75.01
2023-03-18T12:39:30.972Z,74.74
2023-03-18T12:42:17.064Z,74.94
2023-03-18T12:45:02.095Z,75.03
2023-03-18T12:47:48.424Z,74.69
2023-03-18T12:50:16.867Z,74.40
2023-03-18T12:52:47.535Z,74.51
2023-03-18T12:55:31.888Z,74.49
2023-03-18T12:58:00.571Z,74.72
2023-03-18T13:00:59.922Z,74.55
2023-03-18T13:03:35.412Z,74.43
2023-03-18T13:06:29.280Z,74.44
2023-03-18T13:09:17.298Z,74.12
2023-03-18T13:11:59.903Z,74.29
2023-03-18T13:14:46.201Z,74.20
2023-03-18T13:17:24.504Z,74.13
2023-03-18T13:19:52.791Z,73.21
2023-03-18T13:22:47.755Z,73.55
2023-03-18T13:25:51.567Z,73.21
2023-03-18T13:28:44.831Z,73.13
2023-03-18T13:31:31.121Z,72.69
2023-03-18T13:34:04.332Z,73.26
2023-03-18T13:36:54.580Z,73.70
2023-03-18T13:39:42.409Z,73.81
2023-03-18T13:42:28.850Z,73.61
2023-03-18T13:45:42.519Z,73.68
2023-03-18T13:48:40.584Z,73.98
2023-03-18T13:51:46.015Z,74.39
2023-03-18T13:54:18.582Z,74.35
2023-03-18T13:56:50.231Z,74.19
2023-03-18T13:59:34.384Z,74.24
2023-03-18T14:02:40.222Z,74.09
2023-03-18T14:05:34.181Z,74.14
2023-03-18T14:08:05.499Z,74.42
2023-03-18T14:10:33.718Z,74.71
2023-03-18T14:13:25.948Z,74.78
2023-03-18T14:15:56.235Z,74.40
2023-03-18T14:18:27.880Z,74.46
2023-03-18T14:20:59.990Z,74.66
2023-03-18T14:23:43.941Z,74.97
2023-03-18T14:26:26.740Z,75.12
2023-03-18T14:28:56.267Z,75.14
2023-03-18T14:31:32.838Z,75.19
2023-03-18T14:34:05.616Z,75.15
2023-03-18T14:36:54.260Z,75.23
2023-03-18T14:39:35.027Z,74.97
2023-03-18T14:42:05.542Z,75.27
2023-03-18T14:44:46.335Z,75.18
2023-03-18T14:47:31.935Z,75.13
2023-03-18T14:50:25.969Z,74.96
2023-03-18T14:53:00.756Z,75.12
2023-03-18T14:55:32.574Z,75.44
2023-03-18T14:58:01.404Z,75.49
2023-03-18T15:00:36.435Z,75.76
2023-03-18T15:03:09.563Z,75.70
2023-03-18T15:05:40.262Z,75.82
2023-03-18T15:08:47.650Z,75.97
2023-03-18T15:11:16.768Z,76.09
2023-03-18T15:13:46.709Z,76.06
2023-03-18T15:16:18.923Z,76.17
2023-03-18T15:18:53.132Z,76.04
2023-03-18T15:21:28.943Z,76.27
2023-03-18T15:24:00.302Z,76.29
2023-03-18T15:26:28.787Z,76.04
2023-03-18T15:28:59.317Z,75.90
2023-03-18T15:31:30.023Z,75.89
2023-03-18T15:34:19.108Z,76.19
2023-03-18T15:36:58.138Z,76.43
2023-03-18T15:39:36.275Z,76.62
2023-03-18T15:42:19.360Z,76.69
2023-03-18T15:44:58.624Z,76.75
2023-03-18T15:47:31.824Z,76.65
2023-03-18T15:50:24.688Z,76.79
2023-03-18T15:53:02.557Z,76.77
2023-03-18T15:55:37.541Z,76.89
2023-03-18T15:58:06.187Z,76.95
2023-03-18T16:00:34.943Z,77.30
2023-03-18T16:03:05.866Z,77.36
2023-03-18T16:05:35.026Z,77.49
2023-03-18T16:08:03.882Z,77.74
2023-03-18T16:10:32.732Z,77.86
2023-03-18T16:13:01.669Z,77.96
2023-03-18T16:15:30.010Z,78.13
2023-03-18T16:18:00.423Z,78.16
2023-03-18T16:20:30.017Z,78.04
2023-03-18T16:22:59.821Z,77.98
2023-03-18T16:25:28.099Z,78.09
2023-03-18T16:27:57.607Z,78.01
2023-03-18T16:30:28.050Z,78.00
2023-03-18T16:32:56.935Z,77.95
2023-03-18T16:35:32.813Z,78.00
2023-03-18T16:38:01.263Z,77.87
2023-03-18T16:40:31.876Z,77.77
2023-03-18T16:43:02.326Z,77.89
2023-03-18T16:45:32.379Z,78.06
2023-03-18T16:48:07.196Z,78.27
2023-03-18T16:50:37.446Z,78.43
2023-03-18T16:53:22.051Z,78.46
2023-03-18T16:55:51.995Z,78.40
2023-03-18T16:58:28.230Z,78.30
2023-03-18T17:00:57.215Z,77.96
2023-03-18T17:03:26.328Z,77.84
2023-03-18T17:05:58.644Z,77.74
2023-03-18T17:08:27.087Z,77.94
2023-03-18T17:10:56.956Z,77.97
2023-03-18T17:13:33.271Z,77.81
2023-03-18T17:16:01.980Z,78.00
2023-03-18T17:18:30.298Z,77.94
2023-03-18T17:21:05.612Z,77.72
2023-03-18T17:23:34.478Z,77.43
2023-03-18T17:26:03.081Z,77.49
2023-03-18T17:28:39.432Z,77.67
2023-03-18T17:31:07.805Z,77.69
2023-03-18T17:33:42.134Z,77.66
2023-03-18T17:36:11.134Z,77.62
2023-03-18T17:38:39.195Z,77.59
2023-03-18T17:41:19.700Z,77.59
2023-03-18T17:43:52.549Z,77.43
2023-03-18T17:46:20.661Z,77.45
2023-03-18T17:48:49.113Z,77.48
2023-03-18T17:51:23.969Z,77.53
2023-03-18T17:53:59.023Z,77.75
2023-03-18T17:56:28.083Z,77.68
2023-03-18T17:58:56.873Z,77.64
2023-03-18T18:01:27.420Z,77.68
2023-03-18T18:03:56.344Z,77.59
2023-03-18T18:06:27.301Z,77.44
2023-03-18T18:08:59.026Z,77.46
2023-03-18T18:11:35.579Z,77.61
2023-03-18T18:14:25.130Z,77.64
2023-03-18T18:16:59.700Z,77.67
2023-03-18T18:19:30.740Z,77.91
2023-03-18T18:22:03.639Z,77.55
2023-03-18T18:24:33.607Z,77.48
2023-03-18T18:27:04.582Z,77.19
2023-03-18T18:29:34.998Z,77.39
2023-03-18T18:32:06.850Z,77.35
2023-03-18T18:34:36.558Z,77.67
2023-03-18T18:37:05.047Z,77.42
2023-03-18T18:39:33.234Z,77.55
2023-03-18T18:42:10.202Z,77.24
2023-03-18T18:44:38.892Z,77.10
2023-03-18T18:47:20.071Z,77.28
2023-03-18T18:49:52.352Z,77.36
2023-03-18T18:52:20.721Z,77.40
2023-03-18T18:54:49.864Z,77.50
2023-03-18T18:57:29.261Z,77.32
2023-03-18T18:59:58.298Z,77.20
2023-03-18T19:02:34.119Z,77.19
2023-03-18T19:05:04.847Z,77.49
2023-03-18T19:07:33.889Z,77.43
2023-03-18T19:10:02.235Z,77.10
2023-03-18T19:12:31.221Z,76.92
2023-03-18T19:14:59.913Z,76.82
2023-03-18T19:17:28.509Z,76.88
2023-03-18T19:19:56.996Z,76.82
2023-03-18T19:22:26.495Z,76.87
2023-03-18T19:24:54.778Z,76.80
2023-03-18T19:27:28.041Z,76.88
2023-03-18T19:29:58.915Z,76.54
2023-03-18T19:32:27.501Z,76.82
2023-03-18T19:34:58.648Z,76.30
2023-03-18T19:37:29.356Z,76.50
2023-03-18T19:39:58.311Z,76.62
2023-03-18T19:42:27.289Z,76.54
2023-03-18T19:44:56.698Z,76.59
2023-03-18T19:47:28.361Z,76.61
2023-03-18T19:49:56.790Z,76.56
2023-03-18T19:52:28.785Z,76.27
2023-03-18T19:54:57.783Z,76.03
2023-03-18T19:57:29.971Z,76.10
2023-03-18T20:00:01.403Z,76.12
2023-03-18T20:02:31.589Z,76.09
2023-03-18T20:05:01.915Z,76.16
2023-03-18T20:07:32.689Z,75.75
2023-03-18T20:10:01.182Z,75.81
2023-03-18T20:12:40.448Z,75.73
2023-03-18T20:15:16.605Z,75.66
2023-03-18T20:17:45.985Z,75.72
2023-03-18T20:20:17.844Z,75.49
2023-03-18T20:22:53.033Z,75.65
2023-03-18T20:25:36.660Z,75.76
2023-03-18T20:28:08.099Z,75.78
2023-03-18T20:30:37.883Z,75.47
2023-03-18T20:33:07.488Z,75.37
2023-03-18T20:35:42.968Z,75.29
2023-03-18T20:38:17.672Z,75.50
2023-03-18T20:40:47.897Z,75.42
2023-03-18T20:43:20.068Z,75.52
2023-03-18T20:45:51.608Z,75.42
2023-03-18T20:48:22.388Z,75.65
2023-03-18T20:50:52.064Z,75.69
2023-03-18T20:53:25.060Z,75.81
2023-03-18T20:55:53.227Z,75.81
2023-03-18T20:58:25.823Z,75.81
2023-03-18T21:00:54.863Z,75.98
2023-03-18T21:03:25.350Z,75.76
2023-03-18T21:05:56.283Z,75.73
2023-03-18T21:08:25.392Z,75.89
2023-03-18T21:10:54.275Z,75.81
2023-03-18T21:13:39.247Z,75.93
2023-03-18T21:16:11.695Z,76.07
2023-03-18T21:18:45.629Z,75.95
2023-03-18T21:21:21.137Z,76.11
2023-03-18T21:23:49.471Z,75.89
2023-03-18T21:26:18.366Z,75.95
2023-03-18T21:28:48.056Z,76.03
2023-03-18T21:31:31.612Z,76.00
2023-03-18T21:34:00.283Z,76.12
2023-03-18T21:36:29.280Z,76.21
2023-03-18T21:38:57.972Z,76.16
2023-03-18T21:41:28.190Z,75.99
2023-03-18T21:43:56.306Z,76.18
2023-03-18T21:46:27.023Z,76.16
2023-03-18T21:48:56.128Z,76.08
2023-03-18T21:51:38.731Z,76.21
2023-03-18T21:54:26.337Z,76.45
2023-03-18T21:56:55.436Z,76.34
2023-03-18T21:59:23.779Z,76.53
2023-03-18T22:01:52.868Z,76.43
2023-03-18T22:04:23.596Z,76.63
2023-03-18T22:06:52.670Z,76.55
2023-03-18T22:09:23.292Z,76.67
2023-03-18T22:11:51.578Z,76.78
2023-03-18T22:14:19.751Z,76.89
2023-03-18T22:16:48.433Z,76.73
2023-03-18T22:19:17.695Z,76.55
2023-03-18T22:21:47.650Z,76.51
2023-03-18T22:24:15.883Z,76.31
2023-03-18T22:26:44.020Z,76.21
2023-03-18T22:29:13.080Z,76.51
2023-03-18T22:31:43.879Z,76.60
2023-03-18T22:34:38.755Z,76.56
2023-03-18T22:37:11.732Z,76.50
2023-03-18T22:39:39.937Z,76.40
2023-03-18T22:42:10.375Z,76.48
2023-03-18T22:44:40.053Z,76.40
2023-03-18T22:47:16.662Z,76.57
2023-03-18T22:49:45.344Z,76.77
2023-03-18T22:52:21.316Z,76.44
2023-03-18T22:54:58.493Z,76.57
2023-03-18T22:57:27.655Z,76.49
2023-03-18T22:59:56.760Z,76.35
2023-03-18T23:02:27.483Z,76.29
2023-03-18T23:04:55.611Z,76.47
2023-03-18T23:07:28.717Z,76.63
2023-03-18T23:09:58.632Z,76.67
2023-03-18T23:12:30.352Z,76.57
2023-03-18T23:15:04.042Z,76.69
2023-03-18T23:17:32.405Z,76.73
2023-03-18T23:20:00.813Z,76.35
2023-03-18T23:22:33.725Z,76.41
2023-03-18T23:25:02.185Z,76.25
2023-03-18T23:27:30.764Z,76.31
2023-03-18T23:29:59.358Z,76.20
2023-03-18T23:32:27.968Z,76.36
2023-03-18T23:34:56.231Z,76.29
2023-03-18T23:37:24.777Z,76.47
2023-03-18T23:39:53.107Z,76.38
2023-03-18T23:42:23.142Z,76.22
2023-03-18T23:44:51.332Z,76.05
2023-03-18T23:47:20.051Z,76.00
2023-03-18T23:49:48.577Z,76.15
2023-03-18T23:52:16.849Z,76.06
2023-03-18T23:54:45.338Z,76.18
2023-03-18T23:57:14.340Z,76.54
2023-03-18T23:59:42.617Z,76.54
